createdAt,value
2023-05-19T00:01:20.891Z,8.10
2023-05-19T00:04:02.972Z,8.10
2023-05-19T00:06:32.070Z,8.10
2023-05-19T00:09:01.543Z,8.00
2023-05-19T00:11:29.158Z,8.00
2023-05-19T00:14:00.493Z,8.00
2023-05-19T00:16:29.306Z,8.00
2023-05-19T00:19:01.429Z,7.90
2023-05-19T00:21:29.421Z,7.90
2023-05-19T00:23:56.403Z,7.90
2023-05-19T00:26:23.838Z,7.90
2023-05-19T00:28:51.156Z,7.90
2023-05-19T00:31:18.082Z,7.90
2023-05-19T00:33:45.403Z,7.80
2023-05-19T00:36:12.874Z,7.80
2023-05-19T00:38:39.940Z,7.80
2023-05-19T00:41:07.435Z,7.80
2023-05-19T00:43:34.703Z,7.80
2023-05-19T00:46:01.775Z,7.70
2023-05-19T00:48:29.043Z,7.70
2023-05-19T00:51:02.105Z,7.70
2023-05-19T00:53:30.341Z,7.70
2023-05-19T00:55:58.960Z,7.70
2023-05-19T00:58:29.334Z,7.60
2023-05-19T01:01:04.170Z,7.60
2023-05-19T01:03:32.857Z,7.60
2023-05-19T01:06:04.873Z,7.50
2023-05-19T01:08:38.818Z,7.50
2023-05-19T01:11:06.926Z,7.50
2023-05-19T01:13:35.813Z,7.50
2023-05-19T01:16:12.485Z,7.40
2023-05-19T01:19:01.767Z,7.40
2023-05-19T01:21:47.900Z,7.40
2023-05-19T01:24:45.512Z,7.40
2023-05-19T01:27:30.476Z,7.30
2023-05-19T01:30:22.332Z,7.30
2023-05-19T01:32:53.324Z,7.30
2023-05-19T01:35:24.806Z,7.30
2023-05-19T01:37:54.373Z,7.30
2023-05-19T01:40:22.749Z,7.20
2023-05-19T01:42:53.980Z,7.20
2023-05-19T01:45:22.613Z,7.20
2023-05-19T01:47:57.938Z,7.20
2023-05-19T01:50:25.148Z,7.20
2023-05-19T01:52:52.389Z,7.10
2023-05-19T01:55:19.797Z,7.10
2023-05-19T01:58:03.728Z,7.10
2023-05-19T02:00:54.274Z,7.10
2023-05-19T02:03:42.288Z,7.10
2023-05-19T02:06:11.996Z,7.00
2023-05-19T02:08:54.098Z,7.00
2023-05-19T02:11:47.827Z,7.00
2023-05-19T02:14:34.082Z,7.00
2023-05-19T02:17:02.204Z,7.00
2023-05-19T02:19:35.627Z,7.00
2023-05-19T02:22:02.526Z,7.00
2023-05-19T02:24:29.429Z,7.00
2023-05-19T02:26:56.301Z,6.90
2023-05-19T02:29:23.211Z,6.90
2023-05-19T02:31:50.202Z,6.90
2023-05-19T02:34:17.161Z,6.90
2023-05-19T02:36:44.167Z,6.90
2023-05-19T02:39:11.828Z,6.80
2023-05-19T02:41:39.208Z,6.80
2023-05-19T02:44:06.256Z,6.80
2023-05-19T02:46:33.552Z,6.80
2023-05-19T02:49:00.396Z,6.80
2023-05-19T02:51:27.306Z,6.70
2023-05-19T02:53:54.152Z,6.70
2023-05-19T02:56:21.736Z,6.70
2023-05-19T02:58:48.682Z,6.70
2023-05-19T03:01:16.554Z,6.60
2023-05-19T03:03:43.583Z,6.60
2023-05-19T03:06:10.512Z,6.60
2023-05-19T03:08:38.775Z,6.60
2023-05-19T03:11:06.920Z,6.60
2023-05-19T03:13:34.636Z,6.60
2023-05-19T03:16:02.041Z,6.60
2023-05-19T03:18:29.088Z,6.50
2023-05-19T03:20:56.389Z,6.50
2023-05-19T03:23:23.299Z,6.50
2023-05-19T03:25:50.853Z,6.50
2023-05-19T03:28:17.656Z,6.50
2023-05-19T03:30:44.571Z,6.50
2023-05-19T03:33:11.921Z,6.50
2023-05-19T03:35:38.861Z,6.50
2023-05-19T03:38:05.732Z,6.40
2023-05-19T03:40:32.776Z,6.50
2023-05-19T03:43:01.129Z,6.50
2023-05-19T03:45:28.425Z,6.40
2023-05-19T03:47:55.551Z,6.40
2023-05-19T03:50:22.884Z,6.40
2023-05-19T03:52:49.764Z,6.40
2023-05-19T03:55:16.777Z,6.40
2023-05-19T03:57:44.339Z,6.40
2023-05-19T04:00:12.345Z,6.40
2023-05-19T04:02:39.817Z,6.50
2023-05-19T04:05:07.756Z,6.50
2023-05-19T04:07:34.639Z,6.60
2023-05-19T04:10:02.410Z,6.60
2023-05-19T04:12:29.238Z,6.70
2023-05-19T04:14:56.203Z,6.70
2023-05-19T04:17:26.312Z,6.80
2023-05-19T04:19:54.113Z,6.90
2023-05-19T04:22:21.094Z,6.90
2023-05-19T04:24:48.861Z,6.90
2023-05-19T04:27:16.202Z,6.90
2023-05-19T04:29:43.098Z,6.90
2023-05-19T04:32:10.824Z,7.00
2023-05-19T04:34:40.473Z,7.00
2023-05-19T04:37:07.953Z,7.00
2023-05-19T04:39:35.032Z,7.00
2023-05-19T04:42:02.664Z,7.00
2023-05-19T04:44:30.144Z,7.10
2023-05-19T04:46:58.361Z,7.10
2023-05-19T04:49:25.354Z,7.10
2023-05-19T04:51:55.571Z,7.10
2023-05-19T04:54:22.982Z,7.20
2023-05-19T04:56:49.903Z,7.20
2023-05-19T04:59:16.755Z,7.20
2023-05-19T05:01:43.711Z,7.20
2023-05-19T05:04:10.801Z,7.30
2023-05-19T05:06:38.469Z,7.30
2023-05-19T05:09:05.380Z,7.40
2023-05-19T05:11:32.516Z,7.40
2023-05-19T05:13:59.671Z,7.50
2023-05-19T05:16:27.348Z,7.60
2023-05-19T05:18:54.484Z,7.70
2023-05-19T05:21:21.711Z,7.70
2023-05-19T05:23:49.119Z,7.90
2023-05-19T05:26:21.462Z,8.00
2023-05-19T05:28:48.591Z,8.00
2023-05-19T05:31:16.246Z,8.10
2023-05-19T05:33:43.669Z,8.20
2023-05-19T05:36:10.674Z,8.30
2023-05-19T05:38:37.502Z,8.50
2023-05-19T05:41:04.538Z,8.60
2023-05-19T05:43:31.460Z,8.70
2023-05-19T05:45:58.503Z,8.80
2023-05-19T05:48:25.917Z,8.90
2023-05-19T05:50:57.790Z,9.20
2023-05-19T05:53:26.717Z,9.40
2023-05-19T05:55:53.961Z,9.50
2023-05-19T05:58:21.273Z,9.60
2023-05-19T06:00:51.521Z,9.60
2023-05-19T06:03:18.599Z,9.70
2023-05-19T06:05:45.653Z,9.80
2023-05-19T06:08:13.156Z,9.90
2023-05-19T06:10:41.745Z,9.90
2023-05-19T06:13:08.644Z,9.90
2023-05-19T06:15:36.674Z,10.00
2023-05-19T06:18:03.758Z,10.00
2023-05-19T06:20:30.973Z,10.10
2023-05-19T06:22:58.532Z,10.20
2023-05-19T06:25:25.867Z,10.70
2023-05-19T06:27:52.860Z,11.70
2023-05-19T06:30:19.722Z,13.10
2023-05-19T06:32:46.980Z,14.60
2023-05-19T06:35:13.938Z,16.00
2023-05-19T06:37:40.765Z,17.20
2023-05-19T06:40:08.457Z,18.40
2023-05-19T06:42:35.398Z,19.40
2023-05-19T06:45:02.608Z,20.20
2023-05-19T06:47:29.567Z,21.10
2023-05-19T06:49:57.049Z,21.90
2023-05-19T06:52:24.702Z,22.50
2023-05-19T06:54:51.585Z,23.20
2023-05-19T06:57:18.507Z,23.80
2023-05-19T06:59:46.687Z,24.40
2023-05-19T07:02:14.231Z,24.80
2023-05-19T07:04:42.545Z,25.20
2023-05-19T07:07:09.546Z,25.70
2023-05-19T07:09:36.553Z,26.00
2023-05-19T07:12:03.597Z,26.40
2023-05-19T07:14:30.607Z,26.70
2023-05-19T07:16:57.568Z,27.20
2023-05-19T07:19:24.488Z,27.60
2023-05-19T07:21:51.519Z,28.00
2023-05-19T07:24:18.413Z,28.40
2023-05-19T07:26:45.419Z,28.80
2023-05-19T07:29:12.252Z,29.20
2023-05-19T07:31:39.154Z,29.50
2023-05-19T07:34:06.084Z,29.80
2023-05-19T07:36:34.203Z,30.00
2023-05-19T07:39:03.526Z,30.30
2023-05-19T07:41:30.505Z,30.50
2023-05-19T07:43:57.379Z,30.80
2023-05-19T07:46:24.261Z,30.80
2023-05-19T07:48:51.145Z,30.90
2023-05-19T07:51:19.374Z,31.10
2023-05-19T07:53:47.162Z,31.30
2023-05-19T07:56:14.095Z,31.40
2023-05-19T07:58:40.933Z,31.50
2023-05-19T08:01:07.869Z,31.50
2023-05-19T08:03:34.943Z,31.30
2023-05-19T08:06:02.218Z,31.20
2023-05-19T08:08:29.045Z,31.10
2023-05-19T08:10:55.934Z,31.10
2023-05-19T08:13:22.800Z,31.30
2023-05-19T08:15:49.684Z,31.40
2023-05-19T08:18:16.590Z,31.60
2023-05-19T08:20:43.833Z,31.70
2023-05-19T08:23:10.687Z,31.70
2023-05-19T08:25:37.644Z,31.70
2023-05-19T08:28:04.585Z,31.60
2023-05-19T08:30:32.034Z,31.40
2023-05-19T08:32:59.057Z,31.20
2023-05-19T08:35:25.984Z,31.00
2023-05-19T08:37:52.821Z,31.10
2023-05-19T08:40:21.002Z,31.10
2023-05-19T08:42:47.964Z,31.20
2023-05-19T08:45:15.100Z,31.20
2023-05-19T08:47:43.020Z,31.10
2023-05-19T08:50:11.409Z,31.00
2023-05-19T08:52:53.041Z,30.90
2023-05-19T08:55:42.211Z,30.90
2023-05-19T08:58:09.822Z,30.90
2023-05-19T09:00:37.416Z,30.80
2023-05-19T09:03:17.533Z,30.60
2023-05-19T09:05:46.510Z,30.60
2023-05-19T09:08:13.791Z,30.40
2023-05-19T09:10:40.993Z,30.30
2023-05-19T09:13:07.927Z,30.10
2023-05-19T09:15:36.885Z,30.00
2023-05-19T09:18:12.114Z,29.90
2023-05-19T09:20:44.752Z,29.80
2023-05-19T09:23:16.923Z,29.70
2023-05-19T09:25:51.641Z,29.50
2023-05-19T09:28:28.154Z,29.30
2023-05-19T09:31:06.287Z,29.10
2023-05-19T09:33:34.895Z,28.90
2023-05-19T09:36:03.340Z,28.60
2023-05-19T09:38:30.332Z,28.40
2023-05-19T09:40:58.380Z,28.00
2023-05-19T09:43:29.272Z,27.60
2023-05-19T09:46:15.754Z,27.00
2023-05-19T09:48:42.704Z,26.50
2023-05-19T09:51:12.369Z,26.10
2023-05-19T09:53:39.815Z,25.80
2023-05-19T09:56:10.061Z,25.30
2023-05-19T09:58:37.641Z,25.00
2023-05-19T10:01:05.592Z,24.90
2023-05-19T10:03:34.201Z,24.90
2023-05-19T10:06:05.348Z,24.90
2023-05-19T10:08:34.258Z,24.90
2023-05-19T10:11:01.720Z,24.90
2023-05-19T10:13:30.755Z,25.00
2023-05-19T10:15:59.777Z,25.20
2023-05-19T10:18:30.367Z,25.60
2023-05-19T10:20:59.013Z,26.10
2023-05-19T10:23:26.312Z,26.30
2023-05-19T10:25:57.036Z,26.30
2023-05-19T10:28:28.025Z,26.20
2023-05-19T10:30:59.680Z,26.30
2023-05-19T10:33:45.631Z,26.60
2023-05-19T10:36:24.497Z,27.20
2023-05-19T10:39:00.657Z,28.00
2023-05-19T10:41:32.643Z,28.80
2023-05-19T10:44:21.272Z,29.60
2023-05-19T10:46:48.311Z,30.70
2023-05-19T10:49:25.059Z,31.90
2023-05-19T10:51:58.155Z,32.90
2023-05-19T10:54:47.880Z,33.50
2023-05-19T10:57:16.480Z,34.10
2023-05-19T10:59:47.021Z,34.30
2023-05-19T11:02:41.918Z,34.60
2023-05-19T11:05:18.072Z,34.60
2023-05-19T11:07:56.130Z,34.40
2023-05-19T11:10:24.102Z,34.10
2023-05-19T11:12:52.165Z,33.40
2023-05-19T11:15:24.137Z,33.20
2023-05-19T11:17:51.186Z,33.40
2023-05-19T11:20:22.941Z,33.80
2023-05-19T11:23:14.890Z,34.00
2023-05-19T11:25:41.888Z,34.10
2023-05-19T11:28:12.013Z,33.80
2023-05-19T11:30:43.966Z,33.80
2023-05-19T11:33:11.629Z,33.90
2023-05-19T11:35:39.341Z,33.90
2023-05-19T11:38:07.265Z,34.10
2023-05-19T11:40:34.148Z,34.30
2023-05-19T11:43:01.995Z,34.30
2023-05-19T11:45:31.181Z,34.40
2023-05-19T11:48:02.370Z,34.50
2023-05-19T11:50:31.476Z,34.30
2023-05-19T11:53:01.088Z,34.30
2023-05-19T11:55:28.598Z,34.20
2023-05-19T11:58:03.948Z,34.10
2023-05-19T12:00:40.222Z,33.80
2023-05-19T12:03:08.675Z,33.70
2023-05-19T12:05:47.777Z,33.40
2023-05-19T12:08:18.524Z,33.00
2023-05-19T12:10:50.577Z,33.00
2023-05-19T12:13:17.630Z,33.00
2023-05-19T12:15:44.654Z,33.10
2023-05-19T12:18:11.695Z,33.30
2023-05-19T12:20:39.272Z,33.60
2023-05-19T12:23:06.637Z,33.60
2023-05-19T12:25:34.037Z,33.90
2023-05-19T12:28:04.592Z,33.80
2023-05-19T12:30:33.082Z,33.30
2023-05-19T12:33:02.071Z,33.00
2023-05-19T12:35:33.232Z,32.50
2023-05-19T12:38:19.897Z,31.60
2023-05-19T12:40:46.822Z,30.70
2023-05-19T12:43:23.370Z,29.90
2023-05-19T12:45:50.644Z,29.00
2023-05-19T12:48:18.023Z,28.50
2023-05-19T12:50:45.173Z,28.00
2023-05-19T12:53:13.008Z,27.60
2023-05-19T12:55:44.890Z,27.30
2023-05-19T12:58:12.653Z,27.40
2023-05-19T13:00:45.719Z,28.20
2023-05-19T13:03:20.103Z,29.20
2023-05-19T13:05:49.183Z,29.50
2023-05-19T13:08:19.025Z,29.10
2023-05-19T13:10:47.785Z,28.30
2023-05-19T13:13:15.041Z,27.50
2023-05-19T13:15:43.825Z,26.90
2023-05-19T13:18:13.364Z,27.00
2023-05-19T13:20:42.692Z,27.70
2023-05-19T13:23:14.199Z,28.70
2023-05-19T13:25:42.130Z,29.10
2023-05-19T13:28:09.741Z,29.00
2023-05-19T13:30:38.982Z,28.40
2023-05-19T13:33:06.259Z,27.90
2023-05-19T13:35:39.330Z,27.50
2023-05-19T13:38:09.589Z,26.90
2023-05-19T13:40:36.923Z,26.80
2023-05-19T13:43:04.949Z,26.80
2023-05-19T13:45:32.113Z,26.60
2023-05-19T13:47:59.196Z,26.30
2023-05-19T13:50:26.495Z,25.90
2023-05-19T13:52:53.923Z,25.50
2023-05-19T13:55:21.101Z,25.30
2023-05-19T13:57:47.967Z,25.10
2023-05-19T14:00:15.378Z,25.40
2023-05-19T14:02:42.489Z,26.00
2023-05-19T14:05:09.695Z,26.40
2023-05-19T14:07:37.081Z,26.40
2023-05-19T14:10:06.426Z,26.10
2023-05-19T14:12:44.988Z,25.60
2023-05-19T14:15:19.945Z,25.40
2023-05-19T14:17:48.930Z,25.60
2023-05-19T14:20:15.911Z,26.20
2023-05-19T14:22:42.829Z,26.80
2023-05-19T14:25:09.910Z,27.50
2023-05-19T14:27:36.912Z,28.10
2023-05-19T14:30:04.037Z,28.50
2023-05-19T14:32:30.982Z,28.80
2023-05-19T14:34:57.876Z,29.10
2023-05-19T14:37:27.554Z,29.20
2023-05-19T14:39:54.854Z,29.20
2023-05-19T14:42:21.763Z,29.20
2023-05-19T14:44:48.673Z,29.30
2023-05-19T14:47:15.706Z,29.00
2023-05-19T14:49:42.613Z,28.40
2023-05-19T14:52:09.514Z,27.60
2023-05-19T14:54:36.540Z,26.80
2023-05-19T14:57:04.502Z,26.10
2023-05-19T14:59:31.416Z,25.40
2023-05-19T15:01:58.234Z,25.10
2023-05-19T15:04:25.149Z,25.00
2023-05-19T15:07:05.843Z,25.00
2023-05-19T15:09:36.449Z,25.20
2023-05-19T15:12:03.456Z,25.00
2023-05-19T15:14:31.162Z,25.00
2023-05-19T15:16:58.654Z,25.20
2023-05-19T15:19:26.176Z,25.50
2023-05-19T15:21:53.360Z,25.70
2023-05-19T15:24:20.336Z,25.60
2023-05-19T15:26:47.581Z,25.30
2023-05-19T15:29:14.501Z,24.80
2023-05-19T15:31:41.520Z,24.50
2023-05-19T15:34:08.800Z,24.30
2023-05-19T15:36:35.686Z,24.00
2023-05-19T15:39:03.752Z,23.90
2023-05-19T15:41:33.132Z,23.70
2023-05-19T15:44:00.642Z,23.60
2023-05-19T15:46:27.999Z,23.50
2023-05-19T15:48:55.252Z,23.30
2023-05-19T15:51:22.432Z,23.20
2023-05-19T15:53:49.458Z,23.00
2023-05-19T15:56:16.780Z,22.70
2023-05-19T15:58:43.681Z,22.50
2023-05-19T16:01:10.989Z,22.30
2023-05-19T16:03:38.022Z,22.10
2023-05-19T16:06:05.301Z,22.00
2023-05-19T16:08:32.283Z,22.00
2023-05-19T16:10:59.215Z,21.90
2023-05-19T16:13:26.315Z,21.90
2023-05-19T16:15:53.248Z,21.90
2023-05-19T16:18:20.702Z,21.80
2023-05-19T16:20:47.531Z,21.70
2023-05-19T16:23:14.483Z,21.60
2023-05-19T16:25:41.531Z,21.40
2023-05-19T16:28:08.780Z,21.30
2023-05-19T16:30:35.902Z,21.10
2023-05-19T16:33:03.071Z,20.90
2023-05-19T16:35:30.148Z,20.70
2023-05-19T16:37:57.063Z,20.50
2023-05-19T16:40:24.096Z,20.30
2023-05-19T16:42:53.323Z,20.20
2023-05-19T16:45:20.495Z,20.20
2023-05-19T16:47:47.486Z,20.10
2023-05-19T16:50:14.517Z,20.10
2023-05-19T16:52:41.402Z,20.20
2023-05-19T16:55:08.680Z,20.20
2023-05-19T16:57:35.653Z,20.30
2023-05-19T17:00:03.696Z,20.30
2023-05-19T17:02:30.830Z,20.20
2023-05-19T17:04:57.838Z,20.10
2023-05-19T17:07:24.952Z,20.00
2023-05-19T17:09:53.957Z,19.90
2023-05-19T17:12:23.538Z,19.80
2023-05-19T17:14:52.083Z,19.80
2023-05-19T17:17:19.211Z,19.80
2023-05-19T17:19:46.804Z,19.80
2023-05-19T17:22:13.660Z,19.80
2023-05-19T17:24:41.259Z,19.70
2023-05-19T17:27:08.357Z,19.70
2023-05-19T17:29:35.406Z,19.70
2023-05-19T17:32:04.397Z,19.70
2023-05-19T17:34:31.479Z,19.60
2023-05-19T17:36:58.391Z,19.60
2023-05-19T17:39:25.362Z,19.50
2023-05-19T17:41:52.205Z,19.50
2023-05-19T17:44:19.107Z,19.30
2023-05-19T17:46:46.127Z,19.20
2023-05-19T17:49:13.862Z,19.10
2023-05-19T17:51:41.164Z,19.00
2023-05-19T17:54:08.327Z,18.80
2023-05-19T17:56:40.621Z,18.70
2023-05-19T17:59:07.769Z,18.60
2023-05-19T18:01:34.816Z,18.50
2023-05-19T18:04:02.456Z,18.40
2023-05-19T18:06:31.384Z,18.30
2023-05-19T18:09:00.995Z,18.30
2023-05-19T18:11:28.090Z,18.10
2023-05-19T18:13:55.057Z,18.10
2023-05-19T18:16:22.107Z,18.00
2023-05-19T18:18:50.565Z,17.90
2023-05-19T18:21:18.144Z,17.90
2023-05-19T18:23:45.801Z,17.80
2023-05-19T18:26:13.252Z,17.70
2023-05-19T18:28:41.246Z,17.60
2023-05-19T18:31:09.363Z,17.60
2023-05-19T18:33:36.267Z,17.40
2023-05-19T18:36:03.199Z,17.40
2023-05-19T18:38:30.112Z,17.20
2023-05-19T18:40:57.061Z,17.10
2023-05-19T18:43:26.769Z,17.00
2023-05-19T18:45:53.642Z,16.90
2023-05-19T18:48:22.535Z,16.70
2023-05-19T18:50:49.667Z,16.60
2023-05-19T18:53:16.709Z,16.50
2023-05-19T18:55:43.607Z,16.40
2023-05-19T18:58:10.633Z,16.30
2023-05-19T19:00:37.760Z,16.30
2023-05-19T19:03:04.764Z,16.20
2023-05-19T19:05:31.747Z,16.10
2023-05-19T19:07:58.766Z,16.10
2023-05-19T19:10:25.651Z,16.10
2023-05-19T19:12:52.807Z,16.00
2023-05-19T19:15:19.712Z,15.90
2023-05-19T19:17:46.720Z,15.90
2023-05-19T19:20:13.890Z,15.80
2023-05-19T19:22:40.806Z,15.70
2023-05-19T19:25:08.148Z,15.70
2023-05-19T19:27:35.795Z,15.60
2023-05-19T19:30:02.938Z,15.60
2023-05-19T19:32:31.445Z,15.50
2023-05-19T19:34:58.521Z,15.50
2023-05-19T19:37:25.566Z,15.40
2023-05-19T19:39:52.676Z,15.30
2023-05-19T19:42:19.617Z,15.20
2023-05-19T19:44:46.618Z,15.10
2023-05-19T19:47:13.454Z,15.10
2023-05-19T19:49:42.336Z,15.00
2023-05-19T19:52:09.188Z,15.00
2023-05-19T19:54:36.286Z,14.90
2023-05-19T19:57:03.238Z,14.90
2023-05-19T19:59:30.620Z,14.80
2023-05-19T20:01:57.801Z,14.70
2023-05-19T20:04:24.831Z,14.70
2023-05-19T20:06:52.043Z,14.60
2023-05-19T20:09:18.887Z,14.60
2023-05-19T20:11:45.764Z,14.50
2023-05-19T20:14:12.712Z,14.40
2023-05-19T20:16:40.815Z,14.40
2023-05-19T20:19:09.277Z,14.30
2023-05-19T20:21:36.412Z,14.30
2023-05-19T20:24:03.481Z,14.30
2023-05-19T20:26:30.485Z,14.20
2023-05-19T20:28:57.437Z,14.20
2023-05-19T20:31:25.793Z,14.10
2023-05-19T20:33:52.817Z,14.00
2023-05-19T20:36:19.930Z,14.00
2023-05-19T20:38:47.952Z,14.00
2023-05-19T20:41:15.120Z,13.90
2023-05-19T20:43:42.157Z,13.90
2023-05-19T20:46:09.197Z,13.80
2023-05-19T20:48:36.376Z,13.70
2023-05-19T20:51:03.310Z,13.70
2023-05-19T20:53:30.534Z,13.60
2023-05-19T20:56:00.376Z,13.60
2023-05-19T20:58:30.182Z,13.50
2023-05-19T21:01:02.674Z,13.50
2023-05-19T21:03:30.577Z,13.40
2023-05-19T21:05:57.581Z,13.40
2023-05-19T21:08:25.274Z,13.30
2023-05-19T21:10:52.655Z,13.30
2023-05-19T21:13:22.138Z,13.30
2023-05-19T21:15:49.048Z,13.20
2023-05-19T21:18:18.775Z,13.20
2023-05-19T21:20:45.607Z,13.10
2023-05-19T21:23:13.671Z,13.00
2023-05-19T21:25:40.911Z,13.00
2023-05-19T21:28:07.754Z,13.00
2023-05-19T21:30:35.143Z,13.00
2023-05-19T21:33:02.221Z,12.90
2023-05-19T21:35:29.284Z,12.90
2023-05-19T21:37:56.563Z,12.80
2023-05-19T21:40:23.420Z,12.80
2023-05-19T21:42:50.318Z,12.80
2023-05-19T21:45:17.232Z,12.70
2023-05-19T21:47:44.493Z,12.70
2023-05-19T21:50:11.488Z,12.70
2023-05-19T21:52:38.639Z,12.70
2023-05-19T21:55:06.122Z,12.60
2023-05-19T21:57:33.024Z,12.60
2023-05-19T22:00:00.038Z,12.60
2023-05-19T22:02:27.306Z,12.50
2023-05-19T22:04:54.303Z,12.50
2023-05-19T22:07:26.718Z,12.50
2023-05-19T22:09:54.047Z,12.50
2023-05-19T22:12:20.993Z,12.40
2023-05-19T22:14:48.044Z,12.40
2023-05-19T22:17:15.009Z,12.40
2023-05-19T22:19:41.950Z,12.30
2023-05-19T22:22:14.306Z,12.30
2023-05-19T22:24:42.014Z,12.30
2023-05-19T22:27:09.153Z,12.30
2023-05-19T22:29:41.189Z,12.20
2023-05-19T22:32:12.256Z,12.20
2023-05-19T22:34:42.435Z,12.20
2023-05-19T22:37:09.468Z,12.20
2023-05-19T22:39:36.621Z,12.10
2023-05-19T22:42:03.670Z,12.10
2023-05-19T22:44:30.572Z,12.10
2023-05-19T22:46:57.431Z,12.10
2023-05-19T22:49:24.450Z,12.10
2023-05-19T22:54:45.538Z,12.10
2023-05-19T22:57:12.645Z,12.10
2023-05-19T22:59:40.998Z,12.10
2023-05-19T23:02:08.241Z,12.10
2023-05-19T23:04:35.460Z,12.00
2023-05-19T23:07:08.135Z,12.00
2023-05-19T23:09:35.007Z,12.00
2023-05-19T23:12:01.847Z,12.00
2023-05-19T23:14:28.961Z,12.00
2023-05-19T23:16:55.926Z,12.00
2023-05-19T23:19:23.265Z,12.00
2023-05-19T23:21:50.478Z,12.00
2023-05-19T23:24:17.410Z,12.00
2023-05-19T23:26:46.733Z,11.90
2023-05-19T23:29:14.805Z,11.90
2023-05-19T23:31:42.069Z,11.90
2023-05-19T23:34:09.100Z,11.90
2023-05-19T23:36:36.629Z,11.90
2023-05-19T23:39:03.663Z,11.80
2023-05-19T23:41:30.490Z,11.80
2023-05-19T23:43:57.463Z,11.80
2023-05-19T23:46:24.640Z,11.70
2023-05-19T23:48:51.595Z,11.70
2023-05-19T23:51:18.611Z,11.70
2023-05-19T23:53:45.589Z,11.70
2023-05-19T23:56:12.498Z,11.70
2023-05-19T23:58:39.458Z,11.60
